MOL Partner — 3EBZ5 — position and weather

sailwx.info

Track history (hours):
 
Tides and Currents Weather Stations Pressure Air Temp Water Temp Dewpoint Dewpoint Depression Visibility Wind Speed Wind Dir Waves Ship Positions

MOL Partner

Last reported at 2016-Jul-26 14:19 UTC. Time now 2016-Jul-28 20:16 UTC.
Position N 31°16' E 123°18'.

Length 293 m; draft 11.3 m.

Type: Ship (hazmat cat D). MMSI: 371303000.

Date/timePositionNaut miles runAvg speedWind from/ knotsBaromVisibWave heightAir tempDewpointWater temp
2016-Jul-26 14:19N 31°16' E 123°18'1216.2
2016-Jul-26 13:34N 31°12' E 123°04'1616.1
2016-Jul-26 12:34N 31°06' E 122°47'1717.1
2016-Jul-26 11:33N 31°06' E 122°27'1313.0
2016-Jul-26 10:33N 31°10' E 122°12'1514.1
2016-Jul-26 09:32N 31°15' E 121°56'1413.2
2016-Jul-26 08:30N 31°20' E 121°41'2 1.9
2016-Jul-26 07:31N 31°20' E 121°39'0 0.0
2016-Jul-26 06:25N 31°20' E 121°39'0 0.0
2016-Jul-26 05:25N 31°20' E 121°39'0 0.0
2016-Jul-26 04:31N 31°20' E 121°39'0 0.0
2016-Jul-26 03:31N 31°20' E 121°39'0 0.0
2016-Jul-25 22:25N 31°20' E 121°39'0 0.0
2016-Jul-25 20:25N 31°20' E 121°39'1 0.9
2016-Jul-25 19:33N 31°21' E 121°40'1110.9
2016-Jul-25 18:30N 31°16' E 121°52'1310.4
2016-Jul-25 17:15N 31°13' E 122°07'19 9.2
2016-Jul-25 15:12N 31°07' E 122°28'2810.7
2016-Jul-25 12:33N 30°55' E 122°58'2612.7
2016-Jul-25 10:29N 30°30' E 123°06'5112.9
2016-Jul-25 06:33N 29°39' E 123°02'28615.9
2016-Jul-24 12:33N 25°27' E 120°29'2518.1
2016-Jul-24 11:10N 25°11' E 120°08'1218.9
2016-Jul-24 10:33N 25°03' E 119°58'1818.5
2016-Jul-24 09:34N 24°52' E 119°42'1817.5
2016-Jul-24 08:33N 24°40' E 119°28'1717.3
2016-Jul-24 07:34N 24°29' E 119°13'1919.2
2016-Jul-24 06:34N 24°17' E 118°57'1919.2
2016-Jul-24 05:33N 24°04' E 118°41'2020.5
2016-Jul-24 04:33N 23°51' E 118°24'2121.0
2016-Jul-24 03:33N 23°38' E 118°07'2121.3
2016-Jul-24 02:33N 23°25' E 117°48'5020.7
2016-Jul-24 00:09N 22°55' E 117°05'1219.7
2016-Jul-23 23:31N 22°48' E 116°54'12120.2
2016-Jul-23 17:31N 22°19' E 114°46'3216.1
2016-Jul-23 15:33N 22°34' E 114°16'36 1.7
2016-Jul-22 17:33N 22°09' E 113°48'1312.6
2016-Jul-22 16:33N 22°21' E 113°47'17 1.9
2016-Jul-22 07:25N 22°37' E 113°42'2513.2
2016-Jul-22 05:33N 22°14' E 113°49'19915.9
2016-Jul-21 17:04N 23°05' E 117°18'4618.3
2016-Jul-21 14:33N 23°31' E 117°59'2618.5
2016-Jul-21 13:09N 23°49' E 118°20'1218.4
2016-Jul-21 12:29N 23°57' E 118°30'1617.7
2016-Jul-21 11:33N 24°07' E 118°44'1817.8
2016-Jul-21 10:34N 24°18' E 118°59'1918.6
2016-Jul-21 09:33N 24°30' E 119°15'1818.6
2016-Jul-21 08:34N 24°42' E 119°31'1818.1
2016-Jul-21 07:33N 24°54' E 119°45'1817.6
2016-Jul-21 06:33N 25°05' E 120°00'1817.6
2016-Jul-21 05:33N 25°17' E 120°15'27416.8
2016-Jul-20 13:15N 29°23' E 122°30'1716.1
2016-Jul-20 12:11N 29°40' E 122°28'913.9
2016-Jul-20 11:31N 29°45' E 122°19'9 9.1
2016-Jul-20 10:33N 29°51' E 122°12'8 8.4
2016-Jul-20 09:33N 29°53' E 122°02'0 0.0
2016-Jul-20 04:31N 29°53' E 122°02'0 0.0
2016-Jul-20 02:25N 29°53' E 122°02'0 0.0
2016-Jul-20 01:19N 29°53' E 122°02'1 1.4
2016-Jul-20 00:32N 29°54' E 122°03'8 8.6
2016-Jul-19 23:33N 29°51' E 122°12'1010.3
2016-Jul-19 22:33N 29°44' E 122°21'1211.6
2016-Jul-19 21:32N 29°45' E 122°35'2912.3
2016-Jul-19 19:11N 29°58' E 123°05'  
Track history (hours):
 
Tides and Currents Weather Stations Pressure Air Temp Water Temp Dewpoint Dewpoint Depression Visibility Wind Speed Wind Dir Waves Ship Positions

MOL Partner

Last reported at 2016-Jul-26 14:19 UTC. Time now 2016-Jul-28 20:16 UTC.
Position N 31°16' E 123°18'.

Length 293 m; draft 11.3 m.

Type: Ship (hazmat cat D). MMSI: 371303000.

Date/timePositionNaut miles runAvg speedWind from/ knotsBaromVisibWave heightAir tempDewpointWater temp
2016-Jul-26 14:19N 31°16' E 123°18'1216.2
2016-Jul-26 13:34N 31°12' E 123°04'1616.1
2016-Jul-26 12:34N 31°06' E 122°47'1717.1
2016-Jul-26 11:33N 31°06' E 122°27'1313.0
2016-Jul-26 10:33N 31°10' E 122°12'1514.1
2016-Jul-26 09:32N 31°15' E 121°56'1413.2
2016-Jul-26 08:30N 31°20' E 121°41'2 1.9
2016-Jul-26 07:31N 31°20' E 121°39'0 0.0
2016-Jul-26 06:25N 31°20' E 121°39'0 0.0
2016-Jul-26 05:25N 31°20' E 121°39'0 0.0
2016-Jul-26 04:31N 31°20' E 121°39'0 0.0
2016-Jul-26 03:31N 31°20' E 121°39'0 0.0
2016-Jul-25 22:25N 31°20' E 121°39'0 0.0
2016-Jul-25 20:25N 31°20' E 121°39'1 0.9
2016-Jul-25 19:33N 31°21' E 121°40'1110.9
2016-Jul-25 18:30N 31°16' E 121°52'1310.4
2016-Jul-25 17:15N 31°13' E 122°07'19 9.2
2016-Jul-25 15:12N 31°07' E 122°28'2810.7
2016-Jul-25 12:33N 30°55' E 122°58'2612.7
2016-Jul-25 10:29N 30°30' E 123°06'5112.9
2016-Jul-25 06:33N 29°39' E 123°02'28615.9
2016-Jul-24 12:33N 25°27' E 120°29'2518.1
2016-Jul-24 11:10N 25°11' E 120°08'1218.9
2016-Jul-24 10:33N 25°03' E 119°58'1818.5
2016-Jul-24 09:34N 24°52' E 119°42'1817.5
2016-Jul-24 08:33N 24°40' E 119°28'1717.3
2016-Jul-24 07:34N 24°29' E 119°13'1919.2
2016-Jul-24 06:34N 24°17' E 118°57'1919.2
2016-Jul-24 05:33N 24°04' E 118°41'2020.5
2016-Jul-24 04:33N 23°51' E 118°24'2121.0
2016-Jul-24 03:33N 23°38' E 118°07'2121.3
2016-Jul-24 02:33N 23°25' E 117°48'5020.7
2016-Jul-24 00:09N 22°55' E 117°05'1219.7
2016-Jul-23 23:31N 22°48' E 116°54'12120.2
2016-Jul-23 17:31N 22°19' E 114°46'3216.1
2016-Jul-23 15:33N 22°34' E 114°16'36 1.7
2016-Jul-22 17:33N 22°09' E 113°48'1312.6
2016-Jul-22 16:33N 22°21' E 113°47'17 1.9
2016-Jul-22 07:25N 22°37' E 113°42'2513.2
2016-Jul-22 05:33N 22°14' E 113°49'19915.9
2016-Jul-21 17:04N 23°05' E 117°18'4618.3
2016-Jul-21 14:33N 23°31' E 117°59'2618.5
2016-Jul-21 13:09N 23°49' E 118°20'1218.4
2016-Jul-21 12:29N 23°57' E 118°30'1617.7
2016-Jul-21 11:33N 24°07' E 118°44'1817.8
2016-Jul-21 10:34N 24°18' E 118°59'1918.6
2016-Jul-21 09:33N 24°30' E 119°15'1818.6
2016-Jul-21 08:34N 24°42' E 119°31'1818.1
2016-Jul-21 07:33N 24°54' E 119°45'1817.6
2016-Jul-21 06:33N 25°05' E 120°00'1817.6
2016-Jul-21 05:33N 25°17' E 120°15'27416.8
2016-Jul-20 13:15N 29°23' E 122°30'1716.1
2016-Jul-20 12:11N 29°40' E 122°28'913.9
2016-Jul-20 11:31N 29°45' E 122°19'9 9.1
2016-Jul-20 10:33N 29°51' E 122°12'8 8.4
2016-Jul-20 09:33N 29°53' E 122°02'0 0.0
2016-Jul-20 04:31N 29°53' E 122°02'0 0.0
2016-Jul-20 02:25N 29°53' E 122°02'0 0.0
2016-Jul-20 01:19N 29°53' E 122°02'1 1.4
2016-Jul-20 00:32N 29°54' E 122°03'8 8.6
2016-Jul-19 23:33N 29°51' E 122°12'1010.3
2016-Jul-19 22:33N 29°44' E 122°21'1211.6
2016-Jul-19 21:32N 29°45' E 122°35'2912.3
2016-Jul-19 19:11N 29°58' E 123°05'  

Dump ship's entire track history